sensor_id;sensor_type;location;lat;lon;timestamp;temperature;humidity
21906;DHT22;11117;48.644;9.006;2023-07-31T00:01:48;15.10;99.90
21906;DHT22;11117;48.644;9.006;2023-07-31T00:04:13;15.10;99.90
21906;DHT22;11117;48.644;9.006;2023-07-31T00:06:39;15.00;99.90
21906;DHT22;11117;48.644;9.006;2023-07-31T00:09:04;14.90;99.90
21906;DHT22;11117;48.644;9.006;2023-07-31T00:11:30;14.90;99.90
21906;DHT22;11117;48.644;9.006;2023-07-31T00:13:58;14.90;99.90
21906;DHT22;11117;48.644;9.006;2023-07-31T00:16:23;14.80;99.90
21906;DHT22;11117;48.644;9.006;2023-07-31T00:18:49;14.80;99.90
21906;DHT22;11117;48.644;9.006;2023-07-31T00:21:14;14.80;99.90
21906;DHT22;11117;48.644;9.006;2023-07-31T00:23:40;14.90;99.90
21906;DHT22;11117;48.644;9.006;2023-07-31T00:26:05;14.90;99.90
21906;DHT22;11117;48.644;9.006;2023-07-31T00:28:31;14.80;99.90
21906;DHT22;11117;48.644;9.006;2023-07-31T00:30:56;14.80;99.90
21906;DHT22;11117;48.644;9.006;2023-07-31T00:33:22;14.70;99.90
21906;DHT22;11117;48.644;9.006;2023-07-31T00:35:48;14.60;99.90
21906;DHT22;11117;48.644;9.006;2023-07-31T00:38:14;14.60;99.90
21906;DHT22;11117;48.644;9.006;2023-07-31T00:40:39;14.60;99.90
21906;DHT22;11117;48.644;9.006;2023-07-31T00:43:05;14.60;99.90
21906;DHT22;11117;48.644;9.006;2023-07-31T00:45:31;14.60;99.90
21906;DHT22;11117;48.644;9.006;2023-07-31T00:47:57;14.60;99.90
21906;DHT22;11117;48.644;9.006;2023-07-31T00:50:24;14.40;99.90
21906;DHT22;11117;48.644;9.006;2023-07-31T00:52:50;14.50;99.90
21906;DHT22;11117;48.644;9.006;2023-07-31T00:55:16;14.50;99.90
21906;DHT22;11117;48.644;9.006;2023-07-31T00:57:42;14.50;99.90
21906;DHT22;11117;48.644;9.006;2023-07-31T01:00:08;14.50;99.90
21906;DHT22;11117;48.644;9.006;2023-07-31T01:02:35;14.50;99.90
21906;DHT22;11117;48.644;9.006;2023-07-31T01:05:01;14.50;99.90
21906;DHT22;11117;48.644;9.006;2023-07-31T01:07:39;14.50;99.90
21906;DHT22;11117;48.644;9.006;2023-07-31T01:10:15;14.50;99.90
21906;DHT22;11117;48.644;9.006;2023-07-31T01:12:42;14.40;99.90
21906;DHT22;11117;48.644;9.006;2023-07-31T01:15:09;14.30;99.90
21906;DHT22;11117;48.644;9.006;2023-07-31T01:17:35;14.30;99.90
21906;DHT22;11117;48.644;9.006;2023-07-31T01:20:02;14.30;99.90
21906;DHT22;11117;48.644;9.006;2023-07-31T01:28:13;14.30;99.90
21906;DHT22;11117;48.644;9.006;2023-07-31T01:30:46;14.30;99.90
21906;DHT22;11117;48.644;9.006;2023-07-31T01:33:13;14.20;99.90
21906;DHT22;11117;48.644;9.006;2023-07-31T01:35:39;14.20;99.90
21906;DHT22;11117;48.644;9.006;2023-07-31T01:38:05;14.20;99.90
21906;DHT22;11117;48.644;9.006;2023-07-31T01:40:31;14.20;99.90
21906;DHT22;11117;48.644;9.006;2023-07-31T01:42:56;14.20;99.90
21906;DHT22;11117;48.644;9.006;2023-07-31T01:45:22;14.00;99.90
21906;DHT22;11117;48.644;9.006;2023-07-31T01:47:47;14.00;99.90
21906;DHT22;11117;48.644;9.006;2023-07-31T01:50:13;13.90;99.90
21906;DHT22;11117;48.644;9.006;2023-07-31T01:52:38;13.80;99.90
21906;DHT22;11117;48.644;9.006;2023-07-31T01:55:04;13.70;99.90
21906;DHT22;11117;48.644;9.006;2023-07-31T01:57:30;13.60;99.90
21906;DHT22;11117;48.644;9.006;2023-07-31T01:59:55;13.50;99.90
21906;DHT22;11117;48.644;9.006;2023-07-31T02:02:21;13.40;99.90
21906;DHT22;11117;48.644;9.006;2023-07-31T02:04:47;13.40;99.90
21906;DHT22;11117;48.644;9.006;2023-07-31T02:07:12;13.40;99.90
21906;DHT22;11117;48.644;9.006;2023-07-31T02:09:38;13.50;99.90
21906;DHT22;11117;48.644;9.006;2023-07-31T02:12:03;13.40;99.90
21906;DHT22;11117;48.644;9.006;2023-07-31T02:14:29;13.40;99.90
21906;DHT22;11117;48.644;9.006;2023-07-31T02:16:55;13.40;99.90
21906;DHT22;11117;48.644;9.006;2023-07-31T02:19:20;13.40;99.90
21906;DHT22;11117;48.644;9.006;2023-07-31T02:21:46;13.40;99.90
21906;DHT22;11117;48.644;9.006;2023-07-31T02:24:11;13.30;99.90
21906;DHT22;11117;48.644;9.006;2023-07-31T02:26:37;13.40;99.90
21906;DHT22;11117;48.644;9.006;2023-07-31T02:29:02;13.40;99.90
21906;DHT22;11117;48.644;9.006;2023-07-31T02:31:28;13.30;99.90
21906;DHT22;11117;48.644;9.006;2023-07-31T02:33:54;13.30;99.90
21906;DHT22;11117;48.644;9.006;2023-07-31T02:36:20;13.40;99.90
21906;DHT22;11117;48.644;9.006;2023-07-31T02:38:45;13.50;99.90
21906;DHT22;11117;48.644;9.006;2023-07-31T02:41:11;13.50;99.90
21906;DHT22;11117;48.644;9.006;2023-07-31T02:43:36;13.50;99.90
21906;DHT22;11117;48.644;9.006;2023-07-31T02:46:02;13.50;99.90
21906;DHT22;11117;48.644;9.006;2023-07-31T02:48:27;13.50;99.90
21906;DHT22;11117;48.644;9.006;2023-07-31T02:50:53;13.60;99.90
21906;DHT22;11117;48.644;9.006;2023-07-31T02:53:19;13.70;99.90
21906;DHT22;11117;48.644;9.006;2023-07-31T02:55:44;13.70;99.90
21906;DHT22;11117;48.644;9.006;2023-07-31T02:58:10;13.70;99.90
21906;DHT22;11117;48.644;9.006;2023-07-31T03:00:35;13.70;99.90
21906;DHT22;11117;48.644;9.006;2023-07-31T03:03:01;13.50;99.90
21906;DHT22;11117;48.644;9.006;2023-07-31T03:05:26;13.50;99.90
21906;DHT22;11117;48.644;9.006;2023-07-31T03:07:52;13.40;99.90
21906;DHT22;11117;48.644;9.006;2023-07-31T03:10:17;13.40;99.90
21906;DHT22;11117;48.644;9.006;2023-07-31T03:12:46;13.40;99.90
21906;DHT22;11117;48.644;9.006;2023-07-31T03:15:12;13.40;99.90
21906;DHT22;11117;48.644;9.006;2023-07-31T03:17:37;13.40;99.90
21906;DHT22;11117;48.644;9.006;2023-07-31T03:20:04;13.40;99.90
21906;DHT22;11117;48.644;9.006;2023-07-31T03:22:29;13.30;99.90
21906;DHT22;11117;48.644;9.006;2023-07-31T03:24:55;13.30;99.90
21906;DHT22;11117;48.644;9.006;2023-07-31T03:27:20;13.30;99.90
21906;DHT22;11117;48.644;9.006;2023-07-31T03:29:46;13.30;99.90
21906;DHT22;11117;48.644;9.006;2023-07-31T03:32:11;13.30;99.90
21906;DHT22;11117;48.644;9.006;2023-07-31T03:34:37;13.30;99.90
21906;DHT22;11117;48.644;9.006;2023-07-31T03:37:02;13.30;99.90
21906;DHT22;11117;48.644;9.006;2023-07-31T03:39:28;13.40;99.90
21906;DHT22;11117;48.644;9.006;2023-07-31T03:41:53;13.40;99.90
21906;DHT22;11117;48.644;9.006;2023-07-31T03:44:19;13.30;99.90
21906;DHT22;11117;48.644;9.006;2023-07-31T03:46:44;13.40;99.90
21906;DHT22;11117;48.644;9.006;2023-07-31T03:49:10;13.40;99.90
21906;DHT22;11117;48.644;9.006;2023-07-31T03:51:36;13.40;99.90
21906;DHT22;11117;48.644;9.006;2023-07-31T03:54:01;13.40;99.90
21906;DHT22;11117;48.644;9.006;2023-07-31T03:56:27;13.40;99.90
21906;DHT22;11117;48.644;9.006;2023-07-31T03:58:53;13.50;99.90
21906;DHT22;11117;48.644;9.006;2023-07-31T04:01:19;13.60;99.90
21906;DHT22;11117;48.644;9.006;2023-07-31T04:03:45;13.60;99.90
21906;DHT22;11117;48.644;9.006;2023-07-31T04:06:10;13.60;99.90
21906;DHT22;11117;48.644;9.006;2023-07-31T04:08:36;13.70;99.90
21906;DHT22;11117;48.644;9.006;2023-07-31T04:11:01;13.80;99.90
21906;DHT22;11117;48.644;9.006;2023-07-31T04:13:29;13.90;99.90
21906;DHT22;11117;48.644;9.006;2023-07-31T04:15:55;13.90;99.90
21906;DHT22;11117;48.644;9.006;2023-07-31T04:18:20;14.00;99.90
21906;DHT22;11117;48.644;9.006;2023-07-31T04:20:46;14.00;99.90
21906;DHT22;11117;48.644;9.006;2023-07-31T04:23:11;14.10;99.90
21906;DHT22;11117;48.644;9.006;2023-07-31T04:25:37;14.30;99.90
21906;DHT22;11117;48.644;9.006;2023-07-31T04:28:03;14.30;99.90
21906;DHT22;11117;48.644;9.006;2023-07-31T04:30:28;14.40;99.90
21906;DHT22;11117;48.644;9.006;2023-07-31T04:32:54;14.50;99.90
21906;DHT22;11117;48.644;9.006;2023-07-31T04:35:19;14.60;99.90
21906;DHT22;11117;48.644;9.006;2023-07-31T04:37:45;14.60;99.90
21906;DHT22;11117;48.644;9.006;2023-07-31T04:40:10;14.50;99.90
21906;DHT22;11117;48.644;9.006;2023-07-31T04:42:36;14.60;99.90
21906;DHT22;11117;48.644;9.006;2023-07-31T04:45:02;14.60;99.90
21906;DHT22;11117;48.644;9.006;2023-07-31T04:47:27;14.60;99.90
21906;DHT22;11117;48.644;9.006;2023-07-31T04:49:53;14.70;99.90
21906;DHT22;11117;48.644;9.006;2023-07-31T04:52:18;14.80;99.90
21906;DHT22;11117;48.644;9.006;2023-07-31T04:54:44;14.90;99.90
21906;DHT22;11117;48.644;9.006;2023-07-31T04:57:09;14.90;99.90
21906;DHT22;11117;48.644;9.006;2023-07-31T04:59:35;15.00;99.90
21906;DHT22;11117;48.644;9.006;2023-07-31T05:02:00;15.10;99.90
21906;DHT22;11117;48.644;9.006;2023-07-31T05:04:26;15.30;99.90
21906;DHT22;11117;48.644;9.006;2023-07-31T05:06:52;15.40;99.90
21906;DHT22;11117;48.644;9.006;2023-07-31T05:09:17;15.50;99.90
21906;DHT22;11117;48.644;9.006;2023-07-31T05:11:43;15.60;99.90
21906;DHT22;11117;48.644;9.006;2023-07-31T05:14:08;15.70;99.90
21906;DHT22;11117;48.644;9.006;2023-07-31T05:16:34;15.70;99.90
21906;DHT22;11117;48.644;9.006;2023-07-31T05:19:00;15.90;99.90
21906;DHT22;11117;48.644;9.006;2023-07-31T05:21:25;15.80;99.90
21906;DHT22;11117;48.644;9.006;2023-07-31T05:23:50;15.80;99.90
21906;DHT22;11117;48.644;9.006;2023-07-31T05:26:16;16.10;99.90
21906;DHT22;11117;48.644;9.006;2023-07-31T05:28:41;16.20;99.90
21906;DHT22;11117;48.644;9.006;2023-07-31T05:31:07;16.40;99.90
21906;DHT22;11117;48.644;9.006;2023-07-31T05:33:33;16.60;99.90
21906;DHT22;11117;48.644;9.006;2023-07-31T05:35:58;16.80;99.90
21906;DHT22;11117;48.644;9.006;2023-07-31T05:38:24;16.90;99.90
21906;DHT22;11117;48.644;9.006;2023-07-31T05:40:49;17.10;99.90
21906;DHT22;11117;48.644;9.006;2023-07-31T05:43:15;17.30;99.90
21906;DHT22;11117;48.644;9.006;2023-07-31T05:45:42;17.30;99.90
21906;DHT22;11117;48.644;9.006;2023-07-31T05:48:07;17.50;99.90
21906;DHT22;11117;48.644;9.006;2023-07-31T05:50:33;17.70;99.90
21906;DHT22;11117;48.644;9.006;2023-07-31T05:52:58;17.70;99.90
21906;DHT22;11117;48.644;9.006;2023-07-31T05:55:25;17.90;99.90
21906;DHT22;11117;48.644;9.006;2023-07-31T05:57:50;17.90;99.90
21906;DHT22;11117;48.644;9.006;2023-07-31T06:00:16;17.90;99.90
21906;DHT22;11117;48.644;9.006;2023-07-31T06:02:41;17.90;99.90
21906;DHT22;11117;48.644;9.006;2023-07-31T06:05:07;18.00;99.90
21906;DHT22;11117;48.644;9.006;2023-07-31T06:07:33;18.00;99.90
21906;DHT22;11117;48.644;9.006;2023-07-31T06:09:58;17.90;99.90
21906;DHT22;11117;48.644;9.006;2023-07-31T06:12:24;17.90;99.90
21906;DHT22;11117;48.644;9.006;2023-07-31T06:14:49;17.90;99.90
21906;DHT22;11117;48.644;9.006;2023-07-31T06:17:15;17.70;99.90
21906;DHT22;11117;48.644;9.006;2023-07-31T06:19:40;17.80;99.90
21906;DHT22;11117;48.644;9.006;2023-07-31T06:22:06;17.90;99.90
21906;DHT22;11117;48.644;9.006;2023-07-31T06:24:31;17.90;99.90
21906;DHT22;11117;48.644;9.006;2023-07-31T06:26:57;18.00;99.90
21906;DHT22;11117;48.644;9.006;2023-07-31T06:29:22;18.30;99.90
21906;DHT22;11117;48.644;9.006;2023-07-31T06:31:48;18.30;99.90
21906;DHT22;11117;48.644;9.006;2023-07-31T06:34:13;18.30;99.90
21906;DHT22;11117;48.644;9.006;2023-07-31T06:36:39;18.20;99.90
21906;DHT22;11117;48.644;9.006;2023-07-31T06:39:04;18.40;99.90
21906;DHT22;11117;48.644;9.006;2023-07-31T06:41:30;18.40;99.90
21906;DHT22;11117;48.644;9.006;2023-07-31T06:43:59;18.60;99.90
21906;DHT22;11117;48.644;9.006;2023-07-31T06:46:25;18.70;99.90
21906;DHT22;11117;48.644;9.006;2023-07-31T06:48:50;19.00;99.90
21906;DHT22;11117;48.644;9.006;2023-07-31T06:51:16;19.20;99.90
21906;DHT22;11117;48.644;9.006;2023-07-31T06:53:41;19.50;99.90
21906;DHT22;11117;48.644;9.006;2023-07-31T06:56:07;19.50;99.90
21906;DHT22;11117;48.644;9.006;2023-07-31T06:58:32;19.50;99.90
21906;DHT22;11117;48.644;9.006;2023-07-31T07:00:58;19.50;99.90
21906;DHT22;11117;48.644;9.006;2023-07-31T07:03:23;19.50;99.90
21906;DHT22;11117;48.644;9.006;2023-07-31T07:05:49;19.70;99.90
21906;DHT22;11117;48.644;9.006;2023-07-31T07:08:14;20.00;99.90
21906;DHT22;11117;48.644;9.006;2023-07-31T07:10:40;20.10;99.90
21906;DHT22;11117;48.644;9.006;2023-07-31T07:13:05;20.30;99.90
21906;DHT22;11117;48.644;9.006;2023-07-31T07:15:31;20.50;99.90
21906;DHT22;11117;48.644;9.006;2023-07-31T07:17:56;20.60;99.90
21906;DHT22;11117;48.644;9.006;2023-07-31T07:20:22;20.60;99.90
21906;DHT22;11117;48.644;9.006;2023-07-31T07:22:47;20.90;99.90
21906;DHT22;11117;48.644;9.006;2023-07-31T07:25:13;21.00;99.90
21906;DHT22;11117;48.644;9.006;2023-07-31T07:27:38;21.20;99.90
21906;DHT22;11117;48.644;9.006;2023-07-31T07:30:04;21.30;99.90
21906;DHT22;11117;48.644;9.006;2023-07-31T07:32:30;21.40;99.90
21906;DHT22;11117;48.644;9.006;2023-07-31T07:34:56;21.30;99.90
21906;DHT22;11117;48.644;9.006;2023-07-31T07:37:21;21.30;99.90
21906;DHT22;11117;48.644;9.006;2023-07-31T07:39:47;21.60;99.90
21906;DHT22;11117;48.644;9.006;2023-07-31T07:42:12;21.70;99.90
21906;DHT22;11117;48.644;9.006;2023-07-31T07:44:38;21.60;99.90
21906;DHT22;11117;48.644;9.006;2023-07-31T07:47:03;21.70;99.90
21906;DHT22;11117;48.644;9.006;2023-07-31T07:49:29;21.60;99.90
21906;DHT22;11117;48.644;9.006;2023-07-31T07:51:54;21.80;99.90
21906;DHT22;11117;48.644;9.006;2023-07-31T07:54:20;21.90;99.90
21906;DHT22;11117;48.644;9.006;2023-07-31T07:56:45;21.90;99.90
21906;DHT22;11117;48.644;9.006;2023-07-31T07:59:11;21.60;99.90
21906;DHT22;11117;48.644;9.006;2023-07-31T08:01:36;21.50;99.90
21906;DHT22;11117;48.644;9.006;2023-07-31T08:04:03;21.80;99.90
21906;DHT22;11117;48.644;9.006;2023-07-31T08:06:28;22.00;99.90
21906;DHT22;11117;48.644;9.006;2023-07-31T08:08:56;22.30;99.90
21906;DHT22;11117;48.644;9.006;2023-07-31T08:11:22;22.20;99.90
21906;DHT22;11117;48.644;9.006;2023-07-31T08:13:47;22.10;99.90
21906;DHT22;11117;48.644;9.006;2023-07-31T08:16:13;22.00;99.90
21906;DHT22;11117;48.644;9.006;2023-07-31T08:18:38;22.20;99.90
21906;DHT22;11117;48.644;9.006;2023-07-31T08:21:04;22.20;99.90
21906;DHT22;11117;48.644;9.006;2023-07-31T08:23:30;22.40;99.90
21906;DHT22;11117;48.644;9.006;2023-07-31T08:25:55;22.60;99.90
21906;DHT22;11117;48.644;9.006;2023-07-31T08:28:21;22.60;99.90
21906;DHT22;11117;48.644;9.006;2023-07-31T08:30:46;22.70;99.90
21906;DHT22;11117;48.644;9.006;2023-07-31T08:33:12;22.70;99.90
21906;DHT22;11117;48.644;9.006;2023-07-31T08:35:37;22.90;99.90
21906;DHT22;11117;48.644;9.006;2023-07-31T08:38:03;23.00;99.90
21906;DHT22;11117;48.644;9.006;2023-07-31T08:40:29;23.20;99.90
21906;DHT22;11117;48.644;9.006;2023-07-31T08:42:55;23.20;99.90
21906;DHT22;11117;48.644;9.006;2023-07-31T08:45:21;23.30;99.90
21906;DHT22;11117;48.644;9.006;2023-07-31T08:47:51;23.20;99.90
21906;DHT22;11117;48.644;9.006;2023-07-31T08:50:19;23.10;99.90
21906;DHT22;11117;48.644;9.006;2023-07-31T08:52:47;23.40;99.90
21906;DHT22;11117;48.644;9.006;2023-07-31T08:55:13;23.30;99.90
21906;DHT22;11117;48.644;9.006;2023-07-31T08:57:39;23.30;99.90
21906;DHT22;11117;48.644;9.006;2023-07-31T09:00:06;23.40;99.90
21906;DHT22;11117;48.644;9.006;2023-07-31T09:02:41;23.30;99.90
21906;DHT22;11117;48.644;9.006;2023-07-31T09:05:08;23.20;99.90
21906;DHT22;11117;48.644;9.006;2023-07-31T09:07:35;23.00;99.90
21906;DHT22;11117;48.644;9.006;2023-07-31T09:10:00;23.10;99.90
21906;DHT22;11117;48.644;9.006;2023-07-31T09:12:26;22.60;99.90
21906;DHT22;11117;48.644;9.006;2023-07-31T09:14:51;22.70;99.90
21906;DHT22;11117;48.644;9.006;2023-07-31T09:17:29;23.00;99.90
21906;DHT22;11117;48.644;9.006;2023-07-31T09:19:55;22.90;99.90
21906;DHT22;11117;48.644;9.006;2023-07-31T09:22:34;23.10;99.90
21906;DHT22;11117;48.644;9.006;2023-07-31T09:25:26;23.40;99.90
21906;DHT22;11117;48.644;9.006;2023-07-31T09:27:54;23.20;99.70
21906;DHT22;11117;48.644;9.006;2023-07-31T09:30:21;23.20;99.90
21906;DHT22;11117;48.644;9.006;2023-07-31T09:32:48;23.30;99.90
21906;DHT22;11117;48.644;9.006;2023-07-31T09:35:19;23.00;98.90
21906;DHT22;11117;48.644;9.006;2023-07-31T09:37:49;22.80;99.10
21906;DHT22;11117;48.644;9.006;2023-07-31T09:43:01;22.90;99.90
21906;DHT22;11117;48.644;9.006;2023-07-31T09:45:27;23.30;99.80
21906;DHT22;11117;48.644;9.006;2023-07-31T09:47:54;23.40;99.00
21906;DHT22;11117;48.644;9.006;2023-07-31T09:50:24;23.40;99.10
21906;DHT22;11117;48.644;9.006;2023-07-31T09:52:51;23.70;99.10
21906;DHT22;11117;48.644;9.006;2023-07-31T09:55:17;23.80;99.30
21906;DHT22;11117;48.644;9.006;2023-07-31T09:57:46;24.20;99.60
21906;DHT22;11117;48.644;9.006;2023-07-31T10:00:13;24.60;99.00
21906;DHT22;11117;48.644;9.006;2023-07-31T10:02:39;24.80;98.10
21906;DHT22;11117;48.644;9.006;2023-07-31T10:05:06;25.00;97.70
21906;DHT22;11117;48.644;9.006;2023-07-31T10:07:38;25.30;97.50
21906;DHT22;11117;48.644;9.006;2023-07-31T10:10:05;25.40;97.40
21906;DHT22;11117;48.644;9.006;2023-07-31T10:12:33;25.50;95.80
21906;DHT22;11117;48.644;9.006;2023-07-31T10:14:59;25.20;94.80
21906;DHT22;11117;48.644;9.006;2023-07-31T10:17:26;24.90;94.80
21906;DHT22;11117;48.644;9.006;2023-07-31T10:19:52;24.60;95.40
21906;DHT22;11117;48.644;9.006;2023-07-31T10:22:21;24.70;95.40
21906;DHT22;11117;48.644;9.006;2023-07-31T10:24:47;24.40;94.70
21906;DHT22;11117;48.644;9.006;2023-07-31T10:27:13;24.50;95.80
21906;DHT22;11117;48.644;9.006;2023-07-31T10:29:40;24.40;95.60
21906;DHT22;11117;48.644;9.006;2023-07-31T10:32:07;24.20;94.80
21906;DHT22;11117;48.644;9.006;2023-07-31T10:34:35;24.60;95.20
21906;DHT22;11117;48.644;9.006;2023-07-31T10:37:21;24.60;94.80
21906;DHT22;11117;48.644;9.006;2023-07-31T10:39:59;23.50;94.80
21906;DHT22;11117;48.644;9.006;2023-07-31T10:42:30;23.00;95.00
21906;DHT22;11117;48.644;9.006;2023-07-31T10:45:08;22.90;95.80
21906;DHT22;11117;48.644;9.006;2023-07-31T10:48:01;22.80;96.40
21906;DHT22;11117;48.644;9.006;2023-07-31T10:50:27;23.10;96.60
21906;DHT22;11117;48.644;9.006;2023-07-31T10:52:55;22.80;96.40
21906;DHT22;11117;48.644;9.006;2023-07-31T10:55:29;23.10;96.50
21906;DHT22;11117;48.644;9.006;2023-07-31T10:58:08;23.70;97.00
21906;DHT22;11117;48.644;9.006;2023-07-31T11:00:34;23.80;95.60
21906;DHT22;11117;48.644;9.006;2023-07-31T11:03:03;24.00;96.50
21906;DHT22;11117;48.644;9.006;2023-07-31T11:05:46;24.20;96.20
21906;DHT22;11117;48.644;9.006;2023-07-31T11:08:17;24.60;96.00
21906;DHT22;11117;48.644;9.006;2023-07-31T11:10:44;24.80;95.60
21906;DHT22;11117;48.644;9.006;2023-07-31T11:13:09;25.00;94.90
21906;DHT22;11117;48.644;9.006;2023-07-31T11:15:35;25.20;94.30
21906;DHT22;11117;48.644;9.006;2023-07-31T11:18:01;25.30;94.80
21906;DHT22;11117;48.644;9.006;2023-07-31T11:20:29;25.30;94.20
21906;DHT22;11117;48.644;9.006;2023-07-31T11:22:58;25.30;94.80
21906;DHT22;11117;48.644;9.006;2023-07-31T11:25:24;25.40;94.80
21906;DHT22;11117;48.644;9.006;2023-07-31T11:27:50;25.00;93.90
21906;DHT22;11117;48.644;9.006;2023-07-31T11:30:19;24.60;94.50
21906;DHT22;11117;48.644;9.006;2023-07-31T11:32:44;24.70;95.20
21906;DHT22;11117;48.644;9.006;2023-07-31T11:35:12;24.60;94.50
21906;DHT22;11117;48.644;9.006;2023-07-31T11:37:42;24.40;95.10
21906;DHT22;11117;48.644;9.006;2023-07-31T11:40:08;24.50;95.30
21906;DHT22;11117;48.644;9.006;2023-07-31T11:42:34;24.60;94.60
21906;DHT22;11117;48.644;9.006;2023-07-31T11:45:03;24.10;95.20
21906;DHT22;11117;48.644;9.006;2023-07-31T11:47:30;23.90;95.10
21906;DHT22;11117;48.644;9.006;2023-07-31T11:49:57;23.50;95.70
21906;DHT22;11117;48.644;9.006;2023-07-31T11:52:23;23.50;96.00
21906;DHT22;11117;48.644;9.006;2023-07-31T11:54:49;23.50;96.10
21906;DHT22;11117;48.644;9.006;2023-07-31T11:57:16;23.50;96.40
21906;DHT22;11117;48.644;9.006;2023-07-31T11:59:42;23.50;96.50
21906;DHT22;11117;48.644;9.006;2023-07-31T12:02:08;23.60;98.20
21906;DHT22;11117;48.644;9.006;2023-07-31T12:04:34;24.00;97.80
21906;DHT22;11117;48.644;9.006;2023-07-31T12:07:02;24.20;97.50
21906;DHT22;11117;48.644;9.006;2023-07-31T12:09:28;24.40;97.10
21906;DHT22;11117;48.644;9.006;2023-07-31T12:11:54;24.40;96.20
21906;DHT22;11117;48.644;9.006;2023-07-31T12:14:27;24.70;95.70
21906;DHT22;11117;48.644;9.006;2023-07-31T12:16:58;24.80;94.90
21906;DHT22;11117;48.644;9.006;2023-07-31T12:19:27;24.60;95.50
21906;DHT22;11117;48.644;9.006;2023-07-31T12:21:52;24.80;96.00
21906;DHT22;11117;48.644;9.006;2023-07-31T12:24:19;24.50;95.20
21906;DHT22;11117;48.644;9.006;2023-07-31T12:26:46;24.00;95.20
21906;DHT22;11117;48.644;9.006;2023-07-31T12:29:11;24.00;95.90
21906;DHT22;11117;48.644;9.006;2023-07-31T12:31:37;24.30;96.60
21906;DHT22;11117;48.644;9.006;2023-07-31T12:34:17;24.60;96.50
21906;DHT22;11117;48.644;9.006;2023-07-31T12:36:43;24.70;95.30
21906;DHT22;11117;48.644;9.006;2023-07-31T12:39:09;24.70;96.20
21906;DHT22;11117;48.644;9.006;2023-07-31T12:41:35;25.10;96.10
21906;DHT22;11117;48.644;9.006;2023-07-31T12:44:00;25.50;95.40
21906;DHT22;11117;48.644;9.006;2023-07-31T12:46:26;26.00;95.10
21906;DHT22;11117;48.644;9.006;2023-07-31T12:48:53;26.40;93.90
21906;DHT22;11117;48.644;9.006;2023-07-31T12:51:19;26.20;93.80
21906;DHT22;11117;48.644;9.006;2023-07-31T12:53:44;26.50;93.60
21906;DHT22;11117;48.644;9.006;2023-07-31T12:56:10;26.60;93.60
21906;DHT22;11117;48.644;9.006;2023-07-31T12:58:35;27.00;93.70
21906;DHT22;11117;48.644;9.006;2023-07-31T13:01:01;27.30;93.60
21906;DHT22;11117;48.644;9.006;2023-07-31T13:03:26;27.10;93.40
21906;DHT22;11117;48.644;9.006;2023-07-31T13:05:52;27.40;93.90
21906;DHT22;11117;48.644;9.006;2023-07-31T13:08:17;26.70;91.90
21906;DHT22;11117;48.644;9.006;2023-07-31T13:10:43;26.30;92.20
21906;DHT22;11117;48.644;9.006;2023-07-31T13:13:09;26.40;93.60
21906;DHT22;11117;48.644;9.006;2023-07-31T13:15:35;26.40;93.50
21906;DHT22;11117;48.644;9.006;2023-07-31T13:18:00;26.30;93.30
21906;DHT22;11117;48.644;9.006;2023-07-31T13:20:26;26.50;93.20
21906;DHT22;11117;48.644;9.006;2023-07-31T13:22:52;26.30;93.40
21906;DHT22;11117;48.644;9.006;2023-07-31T13:25:17;26.10;93.10
21906;DHT22;11117;48.644;9.006;2023-07-31T13:27:43;25.90;94.00
21906;DHT22;11117;48.644;9.006;2023-07-31T13:30:09;25.20;94.50
21906;DHT22;11117;48.644;9.006;2023-07-31T13:32:34;25.30;93.70
21906;DHT22;11117;48.644;9.006;2023-07-31T13:35:01;25.00;94.30
21906;DHT22;11117;48.644;9.006;2023-07-31T13:37:26;25.10;94.50
21906;DHT22;11117;48.644;9.006;2023-07-31T13:39:52;25.00;94.40
21906;DHT22;11117;48.644;9.006;2023-07-31T13:42:17;25.20;94.20
21906;DHT22;11117;48.644;9.006;2023-07-31T13:44:43;25.30;94.50
21906;DHT22;11117;48.644;9.006;2023-07-31T13:47:09;25.40;94.60
21906;DHT22;11117;48.644;9.006;2023-07-31T13:49:36;25.30;93.60
21906;DHT22;11117;48.644;9.006;2023-07-31T13:52:02;25.10;93.60
21906;DHT22;11117;48.644;9.006;2023-07-31T13:54:27;25.40;93.70
21906;DHT22;11117;48.644;9.006;2023-07-31T13:56:53;25.40;93.40
21906;DHT22;11117;48.644;9.006;2023-07-31T13:59:19;25.60;93.00
21906;DHT22;11117;48.644;9.006;2023-07-31T14:01:45;25.90;93.00
21906;DHT22;11117;48.644;9.006;2023-07-31T14:04:11;25.70;92.30
21906;DHT22;11117;48.644;9.006;2023-07-31T14:06:36;25.60;92.80
21906;DHT22;11117;48.644;9.006;2023-07-31T14:09:02;25.70;92.10
21906;DHT22;11117;48.644;9.006;2023-07-31T14:11:28;25.60;92.60
21906;DHT22;11117;48.644;9.006;2023-07-31T14:13:55;25.50;92.30
21906;DHT22;11117;48.644;9.006;2023-07-31T14:16:21;25.00;93.10
21906;DHT22;11117;48.644;9.006;2023-07-31T14:18:46;24.70;93.20
21906;DHT22;11117;48.644;9.006;2023-07-31T14:21:12;24.60;92.80
21906;DHT22;11117;48.644;9.006;2023-07-31T14:23:38;24.20;92.30
21906;DHT22;11117;48.644;9.006;2023-07-31T14:26:04;24.00;92.60
21906;DHT22;11117;48.644;9.006;2023-07-31T14:28:29;23.90;92.80
21906;DHT22;11117;48.644;9.006;2023-07-31T14:30:55;23.80;93.20
21906;DHT22;11117;48.644;9.006;2023-07-31T14:33:20;23.80;93.40
21906;DHT22;11117;48.644;9.006;2023-07-31T14:35:46;24.30;93.90
21906;DHT22;11117;48.644;9.006;2023-07-31T14:38:11;24.40;93.30
21906;DHT22;11117;48.644;9.006;2023-07-31T14:40:37;24.40;92.70
21906;DHT22;11117;48.644;9.006;2023-07-31T14:43:02;24.50;93.00
21906;DHT22;11117;48.644;9.006;2023-07-31T14:45:28;24.90;93.30
21906;DHT22;11117;48.644;9.006;2023-07-31T14:47:53;25.00;92.70
21906;DHT22;11117;48.644;9.006;2023-07-31T14:50:20;25.00;93.20
21906;DHT22;11117;48.644;9.006;2023-07-31T14:52:46;25.30;93.00
21906;DHT22;11117;48.644;9.006;2023-07-31T14:55:11;25.40;92.30
21906;DHT22;11117;48.644;9.006;2023-07-31T14:57:37;25.60;92.70
21906;DHT22;11117;48.644;9.006;2023-07-31T15:00:03;25.70;92.70
21906;DHT22;11117;48.644;9.006;2023-07-31T15:02:28;25.60;92.70
21906;DHT22;11117;48.644;9.006;2023-07-31T15:04:54;25.90;93.30
21906;DHT22;11117;48.644;9.006;2023-07-31T15:07:19;26.10;92.80
21906;DHT22;11117;48.644;9.006;2023-07-31T15:09:45;26.20;92.70
21906;DHT22;11117;48.644;9.006;2023-07-31T15:12:10;26.30;92.60
21906;DHT22;11117;48.644;9.006;2023-07-31T15:14:36;26.30;92.40
21906;DHT22;11117;48.644;9.006;2023-07-31T15:17:01;26.20;92.30
21906;DHT22;11117;48.644;9.006;2023-07-31T15:19:27;26.40;92.60
21906;DHT22;11117;48.644;9.006;2023-07-31T15:21:52;26.50;92.50
21906;DHT22;11117;48.644;9.006;2023-07-31T15:24:18;26.50;92.40
21906;DHT22;11117;48.644;9.006;2023-07-31T15:26:43;26.40;92.40
21906;DHT22;11117;48.644;9.006;2023-07-31T15:29:09;26.60;92.30
21906;DHT22;11117;48.644;9.006;2023-07-31T15:31:35;26.50;91.60
21906;DHT22;11117;48.644;9.006;2023-07-31T15:34:01;26.50;92.50